Time;durP1;ratioP1;P1;durP2;ratioP2;P2;SDS_P1;SDS_P2;PMS_P1;PMS_P2;Temp;Humidity;BMP_temperature;BMP_pressure;BME280_temperature;BME280_humidity;BME280_pressure;Samples;Min_cycle;Max_cycle;Signal;HPM_P1;HPM_P2
2021/11/13 00:04:30;;;;;;;45.20;42.10;;;;;;;12.55;100.00;101187.19;1991811;71;32817;-69
2021/11/13 00:10:17;;;;;;;48.37;44.77;;;;;;;12.35;100.00;101178.98;2000668;71;33326;-67
2021/11/13 00:16:03;;;;;;;45.30;42.03;;;;;;;12.26;100.00;101174.59;1971527;73;33029;-70
2021/11/13 00:21:46;;;;;;;44.67;41.40;;;;;;;12.31;100.00;101177.91;2010038;71;32851;-70
2021/11/13 00:27:30;;;;;;;45.07;42.07;;;;;;;12.26;100.00;101184.34;2013356;71;32841;-68
2021/11/13 00:33:14;;;;;;;40.17;37.43;;;;;;;12.08;100.00;101184.99;2000779;71;33305;-70
2021/11/13 00:38:58;;;;;;;36.33;33.30;;;;;;;12.08;100.00;101184.16;2016906;71;32788;-70
2021/11/13 00:44:42;;;;;;;47.00;43.67;;;;;;;12.03;100.00;101187.80;1997057;71;32839;-69
2021/11/13 00:50:26;;;;;;;51.83;48.13;;;;;;;12.02;100.00;101188.11;2013438;71;33399;-68
2021/11/13 00:56:11;;;;;;;51.17;47.47;;;;;;;12.02;100.00;101192.28;2009617;71;32833;-67
2021/11/13 01:01:55;;;;;;;51.37;47.87;;;;;;;11.93;100.00;101196.78;2014937;71;32908;-69
2021/11/13 01:07:40;;;;;;;53.68;49.95;;;;;;;11.92;100.00;101207.64;1995321;70;27875;-68
2021/11/13 01:13:24;;;;;;;53.53;50.00;;;;;;;11.97;100.00;101211.23;2009473;71;32827;-70
2021/11/13 01:19:09;;;;;;;51.83;48.40;;;;;;;12.00;100.00;101202.86;2000405;71;32825;-67
2021/11/13 01:24:53;;;;;;;51.83;48.40;;;;;;;12.16;100.00;101221.14;2018754;71;32832;-68
2021/11/13 01:30:36;;;;;;;49.33;46.23;;;;;;;11.91;100.00;101221.27;2000489;71;32826;-67
2021/11/13 01:36:20;;;;;;;52.30;48.93;;;;;;;11.89;100.00;101214.62;2014966;71;33391;-68
2021/11/13 01:42:07;;;;;;;48.07;44.87;;;;;;;11.91;100.00;101222.66;1991637;71;33277;-68
2021/11/13 01:47:53;;;;;;;50.60;47.23;;;;;;;11.78;100.00;101229.13;2013495;71;32837;-70
2021/11/13 01:53:38;;;;;;;48.97;45.77;;;;;;;11.89;100.00;101238.28;2011885;71;32776;-68
2021/11/13 01:59:24;;;;;;;50.67;47.27;;;;;;;11.95;100.00;101252.98;2006376;71;32869;-67
2021/11/13 02:05:09;;;;;;;51.20;47.87;;;;;;;11.85;100.00;101253.30;2014999;71;32836;-70
2021/11/13 02:10:54;;;;;;;49.73;46.43;;;;;;;11.78;100.00;101256.95;2011346;71;32833;-70
2021/11/13 02:16:37;;;;;;;51.93;48.53;;;;;;;11.65;100.00;101252.50;1995521;70;31329;-67
2021/11/13 02:22:23;;;;;;;48.33;45.03;;;;;;;11.62;100.00;101255.31;2006343;71;32841;-68
2021/11/13 02:28:10;;;;;;;49.90;46.80;;;;;;;11.72;100.00;101255.29;2017006;71;32831;-70
2021/11/13 02:33:54;;;;;;;49.83;46.70;;;;;;;11.80;100.00;101266.42;2016911;71;32842;-69
2021/11/13 02:39:39;;;;;;;50.53;47.40;;;;;;;11.83;100.00;101269.47;2002805;71;33289;-69
2021/11/13 02:42:10;;;;;;;49.90;46.83;;;;;;;11.81;100.00;101288.39;1962435;72;26228;-67
2021/11/13 02:47:54;;;;;;;48.27;45.07;;;;;;;11.95;100.00;101278.88;2009421;71;32840;-69
2021/11/13 02:53:39;;;;;;;48.33;45.23;;;;;;;11.93;100.00;101288.65;2016939;71;33325;-70
2021/11/13 02:59:24;;;;;;;50.00;46.90;;;;;;;11.99;100.00;101285.55;2011662;71;32813;-68
2021/11/13 03:05:20;;;;;;;49.10;46.20;;;;;;;12.11;100.00;101282.42;2015117;71;32835;-70
2021/11/13 03:11:06;;;;;;;48.97;46.07;;;;;;;12.17;100.00;101280.75;1997329;70;33240;-70
2021/11/13 03:16:51;;;;;;;44.97;42.37;;;;;;;12.27;100.00;101302.16;2005963;71;33416;-67
2021/11/13 03:25:45;;;;;;;47.47;44.67;;;;;;;12.39;100.00;101307.39;2061103;69;32610;-67
2021/11/13 03:28:17;;;;;;;44.83;42.23;;;;;;;12.35;100.00;101311.86;2030858;70;26201;-68
2021/11/13 03:30:48;;;;;;;45.83;43.23;;;;;;;12.36;100.00;101309.36;2008862;70;26298;-70
2021/11/13 03:33:18;;;;;;;46.47;43.87;;;;;;;12.42;100.00;101310.98;2016748;71;26226;-68
2021/11/13 03:35:49;;;;;;;44.57;42.13;;;;;;;12.39;100.00;101314.34;2012909;70;26295;-67
2021/11/13 03:38:19;;;;;;;47.30;44.60;;;;;;;12.38;100.00;101312.12;2012000;70;26230;-69
2021/11/13 03:40:50;;;;;;;45.60;43.10;;;;;;;12.45;100.00;101317.39;2023178;70;26288;-70
2021/11/13 03:43:20;;;;;;;45.30;42.77;;;;;;;12.48;100.00;101319.60;2009765;70;26689;-70
2021/11/13 03:45:52;;;;;;;46.77;44.17;;;;;;;12.49;100.00;101320.72;2015172;70;26283;-70
2021/11/13 03:48:22;;;;;;;47.57;44.60;;;;;;;12.46;100.00;101321.27;2018939;70;26215;-67
2021/11/13 03:50:53;;;;;;;45.07;42.47;;;;;;;12.43;100.00;101323.25;2008711;70;26278;-69
2021/11/13 03:53:23;;;;;;;46.07;43.47;;;;;;;12.44;100.00;101325.47;2014082;70;26209;-67
2021/11/13 03:55:53;;;;;;;44.60;42.10;;;;;;;12.47;100.00;101324.34;2015584;70;26222;-67
2021/11/13 03:58:24;;;;;;;46.40;43.53;;;;;;;12.46;100.00;101319.04;2019041;70;26661;-67
2021/11/13 04:00:54;;;;;;;46.73;43.93;;;;;;;12.45;100.00;101321.58;2013984;70;26203;-69
2021/11/13 04:03:24;;;;;;;46.00;43.40;;;;;;;12.44;100.00;101326.31;2013814;70;26231;-67
2021/11/13 04:05:54;;;;;;;45.20;42.43;;;;;;;12.46;100.00;101322.66;2013695;70;26703;-69
2021/11/13 04:08:24;;;;;;;43.60;41.00;;;;;;;12.49;100.00;101331.86;2015350;70;26238;-70
2021/11/13 04:10:54;;;;;;;43.70;41.00;;;;;;;12.47;100.00;101334.09;2020626;70;26293;-67
2021/11/13 04:13:24;;;;;;;43.67;40.97;;;;;;;12.48;100.00;101339.94;2016458;70;26281;-67
2021/11/13 04:15:54;;;;;;;43.50;40.90;;;;;;;12.46;100.00;101339.94;2011963;70;26231;-69
2021/11/13 04:18:24;;;;;;;42.87;40.33;;;;;;;12.50;100.00;101340.48;2008778;70;26234;-70
2021/11/13 04:20:54;;;;;;;44.40;41.70;;;;;;;12.53;100.00;101348.28;2016768;70;26250;-67
2021/11/13 04:23:24;;;;;;;45.93;43.23;;;;;;;12.48;100.00;101344.68;1985602;70;26298;-70
2021/11/13 04:25:55;;;;;;;44.17;41.47;;;;;;;12.43;100.00;101353.89;1980186;72;26377;-68
2021/11/13 04:28:25;;;;;;;45.63;42.73;;;;;;;12.48;100.00;101353.03;1980257;72;26261;-67
2021/11/13 04:30:55;;;;;;;46.30;43.60;;;;;;;12.52;100.00;101354.97;1980301;72;26196;-67
2021/11/13 04:33:28;;;;;;;41.80;39.30;;;;;;;12.48;100.00;101351.64;1980179;72;26212;-69
2021/11/13 04:36:06;;;;;;;46.63;43.97;;;;;;;12.50;100.00;101355.80;1979786;72;26208;-70
2021/11/13 04:38:36;;;;;;;42.40;39.90;;;;;;;12.50;100.00;101362.77;1979322;72;26311;-70
2021/11/13 04:41:08;;;;;;;44.07;41.37;;;;;;;12.50;100.00;101345.20;1979492;72;26177;-70
2021/11/13 04:43:38;;;;;;;46.13;43.53;;;;;;;12.49;100.00;101338.00;1979461;72;26270;-70
2021/11/13 04:46:09;;;;;;;43.60;41.10;;;;;;;12.50;100.00;101337.69;1979609;72;26204;-67
2021/11/13 04:48:39;;;;;;;43.63;41.10;;;;;;;12.48;100.00;101337.16;1979598;72;26785;-70
2021/11/13 04:51:09;;;;;;;45.80;42.93;;;;;;;12.51;100.00;101333.78;1979523;72;26770;-70
2021/11/13 04:53:39;;;;;;;43.70;41.10;;;;;;;12.49;100.00;101344.41;1979432;72;26310;-68
2021/11/13 04:56:10;;;;;;;44.17;41.47;;;;;;;12.46;100.00;101344.12;1979648;72;26266;-70
2021/11/13 04:58:40;;;;;;;43.80;41.20;;;;;;;12.46;100.00;101344.12;1979614;72;26628;-70
2021/11/13 05:04:24;;;;;;;46.43;43.40;;;;;;;12.52;100.00;101345.77;2009546;71;33333;-69
2021/11/13 05:10:10;;;;;;;43.73;41.13;;;;;;;12.56;100.00;101352.44;2002397;71;33369;-68
2021/11/13 05:15:54;;;;;;;44.83;42.13;;;;;;;12.58;100.00;101359.37;2009861;71;33337;-67
2021/11/13 05:21:39;;;;;;;45.60;42.87;;;;;;;12.60;100.00;101372.48;2015032;71;32844;-70
2021/11/13 05:27:22;;;;;;;44.83;42.23;;;;;;;12.51;100.00;101376.98;2006492;71;32835;-68
2021/11/13 05:33:06;;;;;;;45.13;42.33;;;;;;;12.52;100.00;101380.61;2011266;71;32946;-67
2021/11/13 05:38:50;;;;;;;44.43;41.93;;;;;;;12.53;100.00;101390.64;2002766;71;32918;-70
2021/11/13 05:44:35;;;;;;;46.30;43.60;;;;;;;12.57;100.00;101410.69;2015109;71;32848;-70
2021/11/13 05:50:22;;;;;;;44.00;41.40;;;;;;;12.53;100.00;101415.72;2018720;71;32981;-67
2021/11/13 05:56:07;;;;;;;43.70;41.10;;;;;;;12.55;100.00;101427.40;2016938;71;33035;-70
2021/11/13 06:01:51;;;;;;;43.27;40.80;;;;;;;12.50;100.00;101431.03;2004221;70;32863;-71
2021/11/13 06:07:36;;;;;;;46.23;43.43;;;;;;;12.54;100.00;101439.09;2018471;71;32839;-70
2021/11/13 06:13:21;;;;;;;46.10;43.23;;;;;;;12.44;100.00;101448.91;2002768;71;32793;-68
2021/11/13 06:19:05;;;;;;;45.87;43.23;;;;;;;12.48;100.00;101452.80;1997234;71;33354;-70
2021/11/13 06:24:52;;;;;;;45.37;42.57;;;;;;;12.55;100.00;101463.63;2017251;71;33382;-69
2021/11/13 06:30:36;;;;;;;42.13;39.70;;;;;;;12.52;100.00;101472.56;2011708;71;32864;-69
2021/11/13 06:36:20;;;;;;;44.90;42.17;;;;;;;12.55;100.00;101484.53;2000365;71;32892;-68
2021/11/13 06:42:06;;;;;;;44.33;41.53;;;;;;;12.53;100.00;101487.62;2016732;71;32966;-71
2021/11/13 06:47:51;;;;;;;44.63;41.93;;;;;;;12.51;100.00;101498.75;2000436;71;33037;-70
2021/11/13 06:53:36;;;;;;;46.43;43.70;;;;;;;12.40;100.00;101499.34;2005800;71;33456;-68
2021/11/13 06:59:20;;;;;;;45.90;43.23;;;;;;;12.41;100.00;101508.55;1992110;71;32865;-69
2021/11/13 07:05:06;;;;;;;48.27;45.47;;;;;;;12.41;100.00;101513.53;2002725;71;32776;-68
2021/11/13 07:10:53;;;;;;;47.03;44.03;;;;;;;12.34;100.00;101518.57;2016710;71;33332;-68
2021/11/13 07:16:37;;;;;;;44.93;42.23;;;;;;;12.40;100.00;101528.61;2000944;71;32841;-70
2021/11/13 07:22:22;;;;;;;44.10;41.50;;;;;;;12.41;100.00;101526.66;2002699;71;32775;-67
2021/11/13 07:28:13;;;;;;;47.07;44.27;;;;;;;12.40;100.00;101542.53;2016905;71;32838;-70
2021/11/13 07:33:54;;;;;;;46.10;43.53;;;;;;;12.41;100.00;101553.94;2015003;71;33441;-70
2021/11/13 07:39:39;;;;;;;46.40;43.57;;;;;;;12.31;100.00;101569.28;1995017;71;31002;-67
2021/11/13 07:45:23;;;;;;;48.40;45.03;;;;;;;12.31;100.00;101577.64;2017078;71;32832;-70
2021/11/13 07:51:08;;;;;;;46.10;43.50;;;;;;;12.40;100.00;101577.36;2006259;71;33470;-67
2021/11/13 07:56:52;;;;;;;47.83;44.93;;;;;;;12.37;100.00;101584.02;2006511;71;32766;-68
2021/11/13 08:02:36;;;;;;;44.90;42.40;;;;;;;12.34;100.00;101592.40;1998781;71;32857;-70
2021/11/13 08:08:22;;;;;;;43.70;41.13;;;;;;;12.52;100.00;101599.36;2011303;71;32850;-68
2021/11/13 08:14:06;;;;;;;44.07;41.53;;;;;;;12.57;100.00;101610.51;2015382;71;33437;-68
2021/11/13 08:19:50;;;;;;;44.77;42.27;;;;;;;12.61;100.00;101617.19;2014969;71;33352;-67
2021/11/13 08:25:34;;;;;;;46.47;43.77;;;;;;;12.64;100.00;101634.73;2008091;71;32911;-71
2021/11/13 08:31:19;;;;;;;44.80;42.13;;;;;;;12.69;100.00;101643.94;2008176;70;32834;-71
2021/11/13 08:37:03;;;;;;;46.97;44.37;;;;;;;12.71;100.00;101643.64;2007746;71;33492;-67
2021/11/13 08:42:48;;;;;;;45.53;42.77;;;;;;;12.72;100.00;101654.52;2016782;71;32927;-71
2021/11/13 08:48:32;;;;;;;43.50;41.10;;;;;;;12.81;100.00;101663.16;2009502;71;32862;-68
2021/11/13 08:54:16;;;;;;;45.23;42.53;;;;;;;12.83;100.00;101664.28;1998650;71;32957;-68
2021/11/13 09:00:00;;;;;;;45.13;42.53;;;;;;;12.88;100.00;101664.28;2003971;71;32842;-71
2021/11/13 09:05:45;;;;;;;44.40;41.70;;;;;;;12.86;100.00;101658.98;2008035;71;33028;-68
2021/11/13 09:11:32;;;;;;;46.03;43.43;;;;;;;12.96;100.00;101665.11;1991558;70;33086;-70
2021/11/13 09:17:20;;;;;;;44.40;41.70;;;;;;;13.01;100.00;101683.20;2000855;71;32795;-70
2021/11/13 09:23:05;;;;;;;45.00;42.10;;;;;;;13.07;100.00;101677.91;1990074;71;32894;-69
2021/11/13 09:28:50;;;;;;;46.40;43.70;;;;;;;13.07;100.00;101683.48;2000838;71;32851;-70
2021/11/13 09:34:34;;;;;;;44.17;41.40;;;;;;;13.06;100.00;101692.96;2010035;71;32833;-69
2021/11/13 09:40:21;;;;;;;45.60;42.80;;;;;;;13.28;100.00;101694.07;1999068;71;32870;-71
2021/11/13 09:46:09;;;;;;;42.27;39.60;;;;;;;13.37;100.00;101696.00;2015271;71;33374;-71
2021/11/13 09:51:54;;;;;;;43.57;40.87;;;;;;;13.50;100.00;101688.98;2000765;71;33310;-71
2021/11/13 09:57:40;;;;;;;43.33;40.87;;;;;;;13.58;100.00;101694.81;2016738;71;33290;-71
2021/11/13 10:03:28;;;;;;;45.07;42.47;;;;;;;13.56;100.00;101703.21;1998996;71;32795;-70
2021/11/13 10:09:13;;;;;;;44.10;41.43;;;;;;;13.54;100.00;101715.21;2018266;71;32942;-70
2021/11/13 10:14:59;;;;;;;43.70;41.03;;;;;;;13.47;100.00;101728.08;1995095;71;33300;-72
2021/11/13 10:20:46;;;;;;;44.87;42.23;;;;;;;13.50;100.00;101735.88;1996922;71;33265;-68
2021/11/13 10:26:37;;;;;;;43.87;41.07;;;;;;;13.56;100.00;101729.73;2009525;71;33533;-70
2021/11/13 10:32:22;;;;;;;40.57;38.20;;;;;;;13.62;100.00;101746.17;1994544;71;33043;-68
2021/11/13 10:38:16;;;;;;;43.17;40.53;;;;;;;13.84;100.00;101749.16;2014855;71;32985;-68
2021/11/13 10:44:08;;;;;;;43.40;40.90;;;;;;;13.86;100.00;101752.52;2000685;71;32784;-66
2021/11/13 10:49:53;;;;;;;45.13;42.53;;;;;;;13.93;100.00;101744.66;2000486;71;32843;-68
2021/11/13 10:55:39;;;;;;;45.20;42.60;;;;;;;14.08;100.00;101748.77;2018338;71;32954;-69
2021/11/13 11:01:45;;;;;;;43.00;40.60;;;;;;;13.95;100.00;101758.61;2008151;70;33316;-72
2021/11/13 11:07:31;;;;;;;46.37;43.67;;;;;;;14.06;100.00;101755.22;2013143;71;33323;-71
2021/11/13 11:13:17;;;;;;;46.90;44.30;;;;;;;14.01;100.00;101744.06;2014736;71;32842;-69
2021/11/13 11:19:05;;;;;;;47.43;44.67;;;;;;;13.99;100.00;101758.31;2011114;71;33482;-69
2021/11/13 11:25:01;;;;;;;43.20;40.70;;;;;;;13.95;100.00;101761.95;1991453;71;33342;-68
2021/11/13 11:30:49;;;;;;;47.10;44.23;;;;;;;13.97;100.00;101763.92;2003666;71;32979;-69
2021/11/13 11:36:35;;;;;;;51.43;48.47;;;;;;;13.93;100.00;101766.45;2011198;71;32891;-68
2021/11/13 11:42:19;;;;;;;47.60;44.93;;;;;;;13.82;100.00;101762.01;2000721;71;33496;-71
2021/11/13 11:48:07;;;;;;;48.50;45.90;;;;;;;13.80;100.00;101769.85;1995050;71;32773;-72
2021/11/13 11:53:52;;;;;;;48.03;45.53;;;;;;;13.82;100.00;101770.97;2009254;71;32939;-72
2021/11/13 11:59:37;;;;;;;48.13;45.53;;;;;;;13.87;100.00;101773.72;2011574;71;32957;-68
2021/11/13 12:05:27;;;;;;;49.03;46.50;;;;;;;13.81;100.00;101765.95;2009155;71;33390;-69
2021/11/13 12:11:23;;;;;;;50.00;47.30;;;;;;;13.84;100.00;101775.14;2014675;70;33394;-68
2021/11/13 12:17:32;;;;;;;50.27;47.37;;;;;;;13.93;100.00;101776.23;2016465;71;32951;-71
2021/11/13 12:23:39;;;;;;;50.07;47.27;;;;;;;13.85;100.00;101778.22;2014690;71;32890;-71
2021/11/13 12:29:25;;;;;;;47.63;44.87;;;;;;;13.83;100.00;101776.25;1991457;71;32901;-70
2021/11/13 12:35:16;;;;;;;51.50;48.60;;;;;;;13.79;100.00;101788.27;1998608;71;32776;-69
2021/11/13 12:41:03;;;;;;;47.67;45.23;;;;;;;13.80;100.00;101792.19;2014765;71;33294;-70
2021/11/13 12:44:00;;;;;;;49.50;46.87;;;;;;;13.76;100.00;101797.23;1985624;72;26208;-70
2021/11/13 12:49:48;;;;;;;44.83;42.53;;;;;;;13.85;100.00;101787.99;2009361;71;32856;-71
2021/11/13 12:55:47;;;;;;;38.40;36.07;;;;;;;14.02;100.00;101784.30;2007276;71;32933;-72
2021/11/13 13:01:31;;;;;;;39.70;37.60;;;;;;;14.03;100.00;101789.33;2014906;70;33296;-71
2021/11/13 13:07:19;;;;;;;34.93;33.03;;;;;;;14.11;100.00;101778.95;1994634;71;32909;-72
2021/11/13 13:13:07;;;;;;;38.40;36.40;;;;;;;13.99;100.00;101777.05;2003605;71;33404;-70
2021/11/13 13:19:00;;;;;;;42.00;39.90;;;;;;;14.06;100.00;101769.19;1991292;70;32827;-71
2021/11/13 13:24:50;;;;;;;37.30;35.40;;;;;;;13.93;100.00;101766.45;2005425;71;33437;-71
2021/11/13 13:30:37;;;;;;;45.27;42.50;;;;;;;13.84;100.00;101758.94;2014807;71;32887;-71
2021/11/13 13:36:24;;;;;;;38.00;35.90;;;;;;;13.72;100.00;101779.37;2009710;71;32775;-68
2021/11/13 13:42:09;;;;;;;40.07;37.87;;;;;;;13.78;100.00;101781.84;2004072;71;32790;-68
2021/11/13 13:47:58;;;;;;;42.90;40.40;;;;;;;13.98;100.00;101785.99;2011543;71;33431;-68
2021/11/13 13:53:48;;;;;;;42.63;39.83;;;;;;;13.90;100.00;101787.14;2009157;70;32928;-68
2021/11/13 13:59:39;;;;;;;46.80;44.00;;;;;;;13.89;100.00;101786.86;1991617;71;33266;-68
2021/11/13 14:05:28;;;;;;;45.17;42.20;;;;;;;13.78;100.00;101799.20;2003812;71;33554;-69
2021/11/13 14:11:28;;;;;;;47.50;44.73;;;;;;;13.79;100.00;101793.30;1998392;71;32898;-70
2021/11/13 14:17:22;;;;;;;49.23;46.53;;;;;;;13.81;100.00;101800.85;1995039;71;32873;-68
2021/11/13 14:23:08;;;;;;;46.90;44.00;;;;;;;13.91;100.00;101811.13;2014747;70;32957;-68
2021/11/13 14:29:01;;;;;;;45.40;42.50;;;;;;;14.00;100.00;101815.02;2006111;71;33357;-69
2021/11/13 14:34:47;;;;;;;47.27;44.47;;;;;;;13.94;100.00;101818.97;2018296;71;33018;-68
2021/11/13 14:40:32;;;;;;;46.67;43.63;;;;;;;13.90;100.00;101819.26;2018174;71;32912;-68
2021/11/13 14:46:20;;;;;;;49.23;46.10;;;;;;;13.91;100.00;101818.11;2006093;71;32775;-68
2021/11/13 14:52:11;;;;;;;46.77;43.50;;;;;;;13.89;100.00;101825.41;2002133;71;33360;-70
2021/11/13 14:57:58;;;;;;;43.70;41.07;;;;;;;13.89;100.00;101827.36;2016546;71;32914;-69
2021/11/13 15:03:44;;;;;;;46.87;44.07;;;;;;;13.91;100.00;101836.27;2013452;71;32863;-68
2021/11/13 15:06:18;;;;;;;47.13;44.33;;;;;;;13.88;100.00;101843.83;1965696;72;26224;-69
2021/11/13 15:12:08;;;;;;;44.60;41.73;;;;;;;13.91;100.00;101843.25;2002354;71;32927;-67
2021/11/13 15:17:54;;;;;;;44.60;42.00;;;;;;;13.93;100.00;101845.22;2007822;71;32872;-69
2021/11/13 15:23:40;;;;;;;48.33;45.27;;;;;;;14.06;100.00;101843.23;2016337;71;32844;-68
2021/11/13 15:29:31;;;;;;;44.33;41.67;;;;;;;14.02;100.00;101858.89;2009314;71;34090;-68
2021/11/13 15:35:18;;;;;;;48.20;45.23;;;;;;;13.98;100.00;101862.81;2004513;71;32839;-70
2021/11/13 15:41:12;;;;;;;49.93;46.97;;;;;;;13.95;100.00;101870.90;2016722;71;33551;-69
2021/11/13 15:46:58;;;;;;;47.03;44.03;;;;;;;13.84;100.00;101869.26;1998624;71;32852;-68
2021/11/13 15:52:51;;;;;;;51.90;49.00;;;;;;;13.88;100.00;101879.59;2005979;71;32878;-68
2021/11/13 15:58:37;;;;;;;49.43;46.50;;;;;;;13.81;100.00;101883.80;2011656;71;33292;-70
2021/11/13 16:04:21;;;;;;;50.03;47.27;;;;;;;13.86;100.00;101886.59;2009261;71;33373;-68
2021/11/13 16:10:09;;;;;;;50.47;47.37;;;;;;;13.88;100.00;101889.36;1991382;71;33341;-69
2021/11/13 16:15:53;;;;;;;51.83;48.90;;;;;;;13.68;100.00;101886.05;2009192;71;32842;-68
2021/11/13 16:21:39;;;;;;;51.33;48.13;;;;;;;13.74;100.00;101901.37;2012822;71;33368;-68
2021/11/13 16:27:24;;;;;;;58.03;54.60;;;;;;;13.75;100.00;101899.71;2000043;71;32835;-69
2021/11/13 16:33:09;;;;;;;55.43;52.03;;;;;;;13.50;100.00;101899.17;2012900;71;33316;-68
2021/11/13 16:38:53;;;;;;;52.07;48.80;;;;;;;13.47;100.00;101912.30;2016536;71;33077;-68
2021/11/13 16:44:39;;;;;;;55.20;51.53;;;;;;;13.55;100.00;101918.72;1998388;71;32898;-69
2021/11/13 16:50:25;;;;;;;51.67;48.53;;;;;;;13.39;100.00;101923.19;1998306;71;32913;-69
2021/11/13 16:56:12;;;;;;;53.40;49.80;;;;;;;13.44;100.00;101925.40;2013555;70;33246;-67
2021/11/13 17:01:56;;;;;;;54.90;51.30;;;;;;;13.11;100.00;101923.13;2011508;70;33354;-68
2021/11/13 17:07:41;;;;;;;52.67;49.37;;;;;;;13.27;100.00;101936.53;2011358;71;32833;-70
2021/11/13 17:13:26;;;;;;;52.17;48.83;;;;;;;13.02;100.00;101954.88;1995125;71;32758;-68
2021/11/13 17:19:13;;;;;;;52.40;48.93;;;;;;;12.95;100.00;101966.02;2000634;70;33357;-69
2021/11/13 17:24:58;;;;;;;49.10;45.80;;;;;;;13.27;100.00;101971.42;2018755;70;32898;-71
2021/11/13 17:30:43;;;;;;;56.07;52.40;;;;;;;13.16;100.00;101985.36;2011148;71;33410;-73
2021/11/13 17:36:28;;;;;;;64.53;59.67;;;;;;;13.29;100.00;101999.34;2002421;71;32869;-73
2021/11/13 17:42:13;;;;;;;68.60;63.40;;;;;;;13.25;100.00;102010.78;2007557;71;33466;-72
2021/11/13 17:47:58;;;;;;;53.37;49.90;;;;;;;13.23;100.00;102008.25;2003880;71;32897;-70
2021/11/13 17:53:45;;;;;;;52.63;49.20;;;;;;;13.25;100.00;102026.13;2016365;71;32812;-70
2021/11/13 17:59:29;;;;;;;54.33;50.73;;;;;;;13.31;100.00;102037.56;2006288;71;32879;-74
2021/11/13 18:05:15;;;;;;;54.27;50.67;;;;;;;13.32;100.00;102038.41;1915021;69;33137;-71
2021/11/13 18:11:02;;;;;;;53.43;49.63;;;;;;;13.26;100.00;102046.50;2004239;71;33386;-70
2021/11/13 18:16:46;;;;;;;53.30;49.57;;;;;;;13.18;100.00;102056.22;2007888;71;32768;-68
2021/11/13 18:22:30;;;;;;;56.13;51.90;;;;;;;13.17;100.00;102063.77;1991683;71;32838;-70
2021/11/13 18:28:17;;;;;;;51.53;48.07;;;;;;;13.17;100.00;102058.75;2013037;71;32965;-71
2021/11/13 18:34:02;;;;;;;52.63;48.90;;;;;;;13.11;100.00;102059.83;1995103;71;32843;-71
2021/11/13 18:39:46;;;;;;;52.77;49.17;;;;;;;13.02;100.00;102066.45;2002102;71;32894;-73
2021/11/13 18:45:30;;;;;;;54.87;50.93;;;;;;;12.96;100.00;102063.92;2016343;71;32878;-71
2021/11/13 18:51:18;;;;;;;54.13;50.43;;;;;;;13.05;100.00;102077.64;2016598;71;32830;-70
2021/11/13 18:57:06;;;;;;;55.93;51.73;;;;;;;13.01;100.00;102075.08;2014632;71;32826;-71
2021/11/13 19:02:51;;;;;;;53.57;49.57;;;;;;;13.16;100.00;102077.44;2016605;71;33393;-70
2021/11/13 19:08:36;;;;;;;53.43;49.83;;;;;;;13.13;100.00;102080.78;2005644;71;32811;-69
2021/11/13 19:14:20;;;;;;;51.30;47.50;;;;;;;13.03;100.00;102082.64;2016781;71;33433;-73
2021/11/13 19:20:08;;;;;;;53.47;49.30;;;;;;;13.05;100.00;102080.43;2014601;71;32900;-73
2021/11/13 19:25:53;;;;;;;57.10;52.23;;;;;;;12.96;100.00;102082.90;2007402;71;33341;-71
2021/11/13 19:31:38;;;;;;;59.93;55.47;;;;;;;13.00;100.00;102088.77;2009610;71;32836;-68
2021/11/13 19:37:23;;;;;;;57.40;53.43;;;;;;;13.04;100.00;102100.51;2002370;71;32868;-71
2021/11/13 19:43:07;;;;;;;55.23;50.97;;;;;;;13.00;100.00;102108.30;2012898;71;32906;-71
2021/11/13 19:48:52;;;;;;;54.90;50.90;;;;;;;12.91;100.00;102105.73;2001862;71;32845;-67
2021/11/13 19:54:38;;;;;;;57.83;53.60;;;;;;;12.76;100.00;102110.09;2005302;71;32904;-68
2021/11/13 20:00:24;;;;;;;54.93;51.00;;;;;;;12.84;100.00;102117.66;2014787;71;32900;-68
2021/11/13 20:06:08;;;;;;;57.53;53.37;;;;;;;13.00;100.00;102125.03;2009624;71;32839;-68
2021/11/13 20:11:52;;;;;;;61.93;57.03;;;;;;;12.96;100.00;102128.92;2007402;71;32928;-70
2021/11/13 20:17:38;;;;;;;65.33;60.20;;;;;;;12.85;100.00;102128.55;2007263;71;33279;-66
2021/11/13 20:23:24;;;;;;;66.17;60.83;;;;;;;12.92;100.00;102123.56;2012856;71;32904;-67
2021/11/13 20:29:09;;;;;;;61.10;56.40;;;;;;;12.93;100.00;102129.98;2007410;71;32970;-67
2021/11/13 20:34:53;;;;;;;58.53;54.40;;;;;;;12.91;100.00;102135.02;1991274;71;32819;-71
2021/11/13 20:40:39;;;;;;;61.93;57.47;;;;;;;12.91;100.00;102139.20;1991378;71;33294;-66
2021/11/13 20:46:25;;;;;;;57.40;53.07;;;;;;;12.93;100.00;102138.36;2010944;71;32831;-72
2021/11/13 20:52:12;;;;;;;59.77;55.77;;;;;;;12.91;100.00;102144.77;2009760;71;32765;-73
2021/11/13 20:57:59;;;;;;;57.07;53.03;;;;;;;12.86;100.00;102148.92;1991165;71;33374;-73
2021/11/13 21:03:47;;;;;;;57.67;53.50;;;;;;;12.85;100.00;102155.59;2006241;71;32757;-77
2021/11/13 21:09:31;;;;;;;56.20;52.17;;;;;;;12.79;100.00;102161.13;2012835;71;33393;-67
2021/11/13 21:15:16;;;;;;;56.73;52.83;;;;;;;12.79;100.00;102161.72;2016653;71;32884;-67
2021/11/13 21:21:02;;;;;;;57.53;53.17;;;;;;;12.83;100.00;102166.20;2000552;71;32840;-66
2021/11/13 21:26:47;;;;;;;54.30;50.20;;;;;;;12.75;100.00;102174.48;2016391;71;32807;-68
2021/11/13 21:32:31;;;;;;;58.03;54.17;;;;;;;12.73;100.00;102177.56;2000171;71;32963;-75
2021/11/13 21:38:15;;;;;;;60.27;56.17;;;;;;;12.75;100.00;102194.84;2011499;71;32752;-67
2021/11/13 21:44:00;;;;;;;55.80;51.60;;;;;;;12.82;100.00;102187.66;2018266;71;32922;-65
2021/11/13 21:49:44;;;;;;;54.73;50.77;;;;;;;12.62;100.00;102176.36;2016622;71;32822;-74
2021/11/13 21:55:31;;;;;;;52.70;48.93;;;;;;;12.67;100.00;102193.95;2011469;71;32768;-67
2021/11/13 22:01:15;;;;;;;59.80;54.80;;;;;;;12.68;100.00;102200.38;2007558;71;32907;-66
2021/11/13 22:07:00;;;;;;;52.60;48.90;;;;;;;12.76;100.00;102192.90;2005953;71;32921;-65
2021/11/13 22:12:45;;;;;;;53.67;50.07;;;;;;;12.71;100.00;102195.64;2009206;71;32900;-68
2021/11/13 22:18:30;;;;;;;54.50;50.73;;;;;;;12.76;100.00;102197.92;2011569;71;32777;-75
2021/11/13 22:24:15;;;;;;;53.70;50.27;;;;;;;12.76;100.00;102199.32;2009881;71;33400;-72
2021/11/13 22:29:58;;;;;;;54.80;51.30;;;;;;;12.62;100.00;102188.33;2007686;71;32838;-71
2021/11/13 22:35:43;;;;;;;53.47;49.93;;;;;;;12.55;100.00;102185.48;2016568;71;32846;-67
2021/11/13 22:41:28;;;;;;;51.70;48.50;;;;;;;12.58;100.00;102194.15;2006156;71;33274;-68
2021/11/13 22:47:13;;;;;;;54.80;51.20;;;;;;;12.62;100.00;102200.06;1994896;71;32765;-77
2021/11/13 22:52:59;;;;;;;53.20;49.60;;;;;;;12.56;100.00;102188.02;2012999;71;32908;-65
2021/11/13 22:58:44;;;;;;;54.63;51.23;;;;;;;12.54;100.00;102187.97;1998674;71;32896;-74
2021/11/13 23:01:47;;;;;;;51.73;48.57;;;;;;;12.44;100.00;102206.86;1962027;72;26782;-73
2021/11/13 23:07:41;;;;;;;54.17;50.43;;;;;;;12.36;100.00;102198.99;2011539;71;33273;-68
2021/11/13 23:13:26;;;;;;;50.43;47.13;;;;;;;12.44;100.00;102201.30;1991384;71;33450;-74
2021/11/13 23:19:15;;;;;;;52.13;48.83;;;;;;;12.53;100.00;102194.12;2014634;71;32844;-67
2021/11/13 23:24:59;;;;;;;47.53;44.40;;;;;;;12.47;100.00;102202.70;2007234;71;32846;-67
2021/11/13 23:30:43;;;;;;;46.60;43.40;;;;;;;12.64;100.00;102203.41;2016734;71;32974;-69
2021/11/13 23:36:28;;;;;;;46.40;43.60;;;;;;;12.57;100.00;102195.83;1998790;71;33349;-73
2021/11/13 23:42:12;;;;;;;49.00;46.03;;;;;;;12.59;100.00;102194.45;2007649;71;33463;-68
2021/11/13 23:47:57;;;;;;;50.83;47.67;;;;;;;12.54;100.00;102194.95;2004553;71;32925;-74